Time;durP1;ratioP1;P1;durP2;ratioP2;P2;SDS_P1;SDS_P2;PMS_P1;PMS_P2;Temp;Humidity;BMP_temperature;BMP_pressure;BME280_temperature;BME280_humidity;BME280_pressure;Samples;Min_cycle;Max_cycle;Signal;HPM_P1;HPM_P2
2021/09/12 00:02:13;;;;;;;11.65;5.00;;;;;;;25.66;50.51;101566.00;5006526;28;20037;-60
2021/09/12 00:04:38;;;;;;;8.93;4.63;;;;;;;25.62;50.86;101570.25;5005691;28;20390;-61
2021/09/12 00:07:03;;;;;;;8.98;5.05;;;;;;;25.61;51.05;101565.78;5004036;28;20034;-61
2021/09/12 00:09:29;;;;;;;7.43;4.65;;;;;;;25.58;50.45;101568.94;5005505;28;20026;-61
2021/09/12 00:11:54;;;;;;;8.30;4.10;;;;;;;25.56;50.72;101559.25;5005595;28;20032;-61
2021/09/12 00:14:20;;;;;;;7.72;4.68;;;;;;;25.53;50.27;101560.50;5004949;28;20068;-61
2021/09/12 00:16:45;;;;;;;6.68;4.13;;;;;;;25.50;51.00;101558.19;5004602;28;20042;-61
2021/09/12 00:19:10;;;;;;;12.20;4.88;;;;;;;25.46;50.40;101562.38;5005305;28;20053;-62
2021/09/12 00:21:36;;;;;;;7.70;4.07;;;;;;;25.40;50.43;101560.47;5005289;28;20035;-61
2021/09/12 00:24:01;;;;;;;8.50;3.80;;;;;;;25.41;50.60;101562.13;5004748;28;20034;-61
2021/09/12 00:26:27;;;;;;;5.70;3.92;;;;;;;25.39;50.70;101558.75;5003147;28;20029;-61
2021/09/12 00:28:53;;;;;;;6.68;3.67;;;;;;;25.35;50.31;101555.59;5005433;28;20065;-61
2021/09/12 00:31:19;;;;;;;9.57;3.97;;;;;;;25.32;50.50;101557.91;5004757;28;20065;-61
2021/09/12 00:33:44;;;;;;;8.30;3.75;;;;;;;25.30;50.58;101560.00;5004573;28;20030;-61
2021/09/12 00:36:10;;;;;;;5.10;3.67;;;;;;;25.26;50.35;101554.13;5004449;28;20032;-61
2021/09/12 00:38:35;;;;;;;10.95;3.92;;;;;;;25.19;50.08;101544.16;5021987;28;20467;-61
2021/09/12 00:41:01;;;;;;;9.38;4.40;;;;;;;25.19;50.39;101552.38;5004197;28;20034;-61
2021/09/12 00:43:26;;;;;;;7.80;4.05;;;;;;;25.15;49.96;101551.13;4987882;28;20129;-60
2021/09/12 00:45:53;;;;;;;9.57;3.50;;;;;;;25.06;50.30;101555.09;5003927;28;20482;-61
2021/09/12 00:48:19;;;;;;;5.82;3.65;;;;;;;25.04;50.40;101557.22;5002766;28;20109;-62
2021/09/12 00:50:44;;;;;;;7.90;4.07;;;;;;;24.98;50.10;101550.66;5003915;28;20116;-61
2021/09/12 00:53:10;;;;;;;7.88;3.47;;;;;;;24.92;50.42;101561.59;5003995;28;20029;-61
2021/09/12 00:55:36;;;;;;;6.80;4.13;;;;;;;24.86;49.87;101546.81;5002219;28;20030;-61
2021/09/12 00:58:02;;;;;;;8.95;3.92;;;;;;;24.82;50.27;101551.84;4988622;28;20412;-61
2021/09/12 01:00:27;;;;;;;8.88;4.75;;;;;;;24.75;49.60;101561.91;5003146;28;20034;-61
2021/09/12 01:02:52;;;;;;;6.72;3.60;;;;;;;24.72;49.62;101553.25;5003893;28;20111;-61
2021/09/12 01:05:18;;;;;;;10.43;4.55;;;;;;;24.71;49.77;101548.81;5004598;28;20586;-61
2021/09/12 01:07:45;;;;;;;7.97;3.75;;;;;;;24.67;49.76;101553.88;5004327;28;20030;-61
2021/09/12 01:10:11;;;;;;;12.63;4.78;;;;;;;24.62;50.14;101547.31;5004797;28;20501;-61
2021/09/12 01:12:36;;;;;;;9.48;3.70;;;;;;;24.59;49.91;101556.78;5001693;28;20030;-61
2021/09/12 01:15:02;;;;;;;6.65;3.60;;;;;;;24.48;49.88;101540.91;5002220;28;20034;-61
2021/09/12 01:17:28;;;;;;;9.98;3.53;;;;;;;24.44;49.59;101547.84;5003612;28;20034;-61
2021/09/12 01:19:55;;;;;;;6.70;3.65;;;;;;;24.42;49.42;101552.69;5003518;28;20049;-61
2021/09/12 01:22:20;;;;;;;7.45;3.70;;;;;;;24.38;49.48;101554.13;5003955;28;20026;-61
2021/09/12 01:24:46;;;;;;;6.93;3.25;;;;;;;24.34;49.97;101550.91;5004261;28;20037;-61
2021/09/12 01:27:11;;;;;;;5.47;3.20;;;;;;;24.31;50.28;101547.75;5002590;28;20039;-61
2021/09/12 01:29:37;;;;;;;9.35;3.53;;;;;;;24.27;50.27;101551.94;5019326;28;20042;-61
2021/09/12 01:32:02;;;;;;;9.15;3.50;;;;;;;24.23;49.70;101550.66;5004183;28;20101;-61
2021/09/12 01:34:28;;;;;;;5.95;3.80;;;;;;;24.16;49.97;101545.13;5004137;28;20029;-61
2021/09/12 01:36:53;;;;;;;19.83;4.72;;;;;;;24.12;50.16;101549.31;5001735;28;20030;-61
2021/09/12 01:39:19;;;;;;;14.43;3.55;;;;;;;24.05;50.08;101542.91;5003779;28;20383;-61
2021/09/12 01:41:44;;;;;;;7.65;3.10;;;;;;;24.03;49.26;101542.28;5002047;28;20104;-61
2021/09/12 01:44:09;;;;;;;7.13;3.30;;;;;;;23.99;49.93;101551.06;5003670;28;20037;-61
2021/09/12 01:46:35;;;;;;;6.57;2.75;;;;;;;23.95;49.88;101544.31;5002561;28;20037;-61
2021/09/12 01:49:05;;;;;;;5.78;2.70;;;;;;;23.91;49.16;101556.69;5003964;28;20022;-61
2021/09/12 01:51:31;;;;;;;7.80;3.05;;;;;;;23.87;49.19;101548.03;5003608;28;20074;-61
2021/09/12 01:53:57;;;;;;;6.25;2.90;;;;;;;23.81;49.80;101545.25;5001832;28;20068;-61
2021/09/12 01:56:22;;;;;;;3.45;2.90;;;;;;;23.77;50.20;101550.28;5003107;28;20076;-61
2021/09/12 01:58:48;;;;;;;5.07;2.65;;;;;;;23.72;50.06;101547.28;5003397;28;20034;-61
2021/09/12 02:01:13;;;;;;;9.40;3.35;;;;;;;23.68;49.04;101545.97;5003718;28;20105;-61
2021/09/12 02:03:38;;;;;;;6.35;2.83;;;;;;;23.58;49.64;101538.13;5001460;28;20058;-61
2021/09/12 02:06:04;;;;;;;4.20;2.20;;;;;;;23.58;49.14;101542.75;5003037;28;20038;-61
2021/09/12 02:08:29;;;;;;;5.15;2.75;;;;;;;23.51;50.04;101533.59;5002670;28;20026;-61
2021/09/12 02:10:54;;;;;;;5.82;2.60;;;;;;;23.45;49.93;101546.19;5004479;28;20495;-61
2021/09/12 02:13:20;;;;;;;7.78;2.58;;;;;;;23.41;50.04;101547.63;5003091;28;20022;-61
2021/09/12 02:15:46;;;;;;;3.60;2.28;;;;;;;23.37;49.41;101549.00;5002605;28;20030;-61
2021/09/12 02:18:12;;;;;;;4.63;2.45;;;;;;;23.33;49.07;101547.72;5004279;28;20054;-61
2021/09/12 02:20:38;;;;;;;8.40;2.22;;;;;;;23.34;49.99;101549.41;5000643;28;20022;-61
2021/09/12 02:23:07;;;;;;;7.80;3.20;;;;;;;23.32;48.97;101551.50;5000789;28;20019;-61
2021/09/12 02:25:34;;;;;;;3.50;2.40;;;;;;;23.27;49.90;101548.50;5001318;28;20101;-61
2021/09/12 02:28:00;;;;;;;7.20;2.90;;;;;;;23.22;49.77;101544.66;5017714;28;20518;-61
2021/09/12 02:30:25;;;;;;;9.27;3.17;;;;;;;23.22;49.15;101542.78;4986048;28;20077;-62
2021/09/12 02:32:51;;;;;;;5.78;2.67;;;;;;;23.20;49.78;101539.38;5000670;28;20387;-61
2021/09/12 02:35:16;;;;;;;3.63;2.60;;;;;;;23.19;49.57;101554.09;5002224;28;20057;-63
2021/09/12 02:37:41;;;;;;;7.10;2.42;;;;;;;23.18;49.54;101560.59;5003155;28;20446;-62
2021/09/12 02:40:07;;;;;;;4.32;2.20;;;;;;;23.13;49.84;101546.66;5001906;28;20122;-63
2021/09/12 02:42:33;;;;;;;6.45;2.92;;;;;;;23.16;48.93;101549.00;4999055;28;20040;-62
2021/09/12 02:44:58;;;;;;;4.88;2.47;;;;;;;23.13;49.24;101554.88;5001719;28;20034;-62
2021/09/12 02:47:24;;;;;;;5.07;2.60;;;;;;;23.13;50.17;101563.06;5000668;28;20521;-63
2021/09/12 02:49:49;;;;;;;4.55;2.75;;;;;;;23.08;49.13;101540.94;5002106;28;20057;-62
2021/09/12 02:52:14;;;;;;;6.25;3.05;;;;;;;23.09;48.98;101553.53;5000270;28;20560;-62
2021/09/12 02:54:40;;;;;;;6.32;2.72;;;;;;;23.08;49.57;101549.13;5001077;28;20026;-62
2021/09/12 02:57:05;;;;;;;12.85;4.78;;;;;;;23.07;49.56;101552.91;5002637;28;20152;-62
2021/09/12 02:59:31;;;;;;;6.35;2.75;;;;;;;23.02;49.28;101544.44;5001457;28;20026;-62
2021/09/12 03:01:57;;;;;;;7.68;2.50;;;;;;;23.06;49.19;101557.50;5002935;28;20134;-63
2021/09/12 03:04:24;;;;;;;5.13;2.40;;;;;;;23.05;49.77;101561.31;5002972;28;20117;-62
2021/09/12 03:06:49;;;;;;;9.27;2.83;;;;;;;23.05;49.32;101565.91;5001122;28;20033;-63
2021/09/12 03:09:15;;;;;;;5.50;2.30;;;;;;;23.02;49.77;101560.84;5002651;28;20382;-62
2021/09/12 03:11:40;;;;;;;6.45;2.78;;;;;;;23.00;49.99;101563.75;5000747;28;20115;-63
2021/09/12 03:14:05;;;;;;;6.93;2.60;;;;;;;22.97;49.23;101566.88;5002318;28;20022;-63
2021/09/12 03:16:31;;;;;;;7.68;2.80;;;;;;;23.00;50.00;101562.91;5001860;28;20034;-63
2021/09/12 03:18:56;;;;;;;8.38;3.25;;;;;;;22.99;50.04;101564.81;5004905;28;20025;-62
2021/09/12 03:21:21;;;;;;;6.50;2.92;;;;;;;22.97;49.77;101560.56;5006034;28;20461;-62
2021/09/12 03:23:47;;;;;;;7.57;2.38;;;;;;;22.95;49.58;101551.69;5006430;28;20018;-62
2021/09/12 03:26:12;;;;;;;5.85;2.28;;;;;;;22.94;49.68;101553.59;5006357;28;20037;-63
2021/09/12 03:28:38;;;;;;;3.55;2.58;;;;;;;22.91;49.01;101556.72;5006427;28;20118;-62
2021/09/12 03:31:04;;;;;;;9.10;2.78;;;;;;;22.89;49.52;101553.31;5005405;28;20390;-62
2021/09/12 03:33:29;;;;;;;6.75;2.92;;;;;;;22.84;49.36;101546.72;5005149;28;20058;-62
2021/09/12 03:35:55;;;;;;;4.63;2.97;;;;;;;22.84;49.00;101541.25;5004489;28;20406;-62
2021/09/12 03:38:20;;;;;;;5.28;2.88;;;;;;;22.77;48.89;101541.19;5005565;28;20030;-62
2021/09/12 03:40:45;;;;;;;7.68;3.28;;;;;;;22.78;49.41;101544.78;5004453;28;20033;-62
2021/09/12 03:43:11;;;;;;;6.75;2.80;;;;;;;22.73;49.08;101549.94;5005662;28;20471;-62
2021/09/12 03:45:36;;;;;;;4.07;2.65;;;;;;;22.75;49.95;101547.91;5005764;28;20028;-62
2021/09/12 03:48:02;;;;;;;5.57;2.58;;;;;;;22.73;49.09;101549.94;5007231;28;20028;-62
2021/09/12 03:50:28;;;;;;;8.23;3.42;;;;;;;22.65;49.39;101544.59;5004690;28;20415;-63
2021/09/12 03:52:54;;;;;;;5.20;2.53;;;;;;;22.64;49.65;101556.59;5005821;28;20026;-62
2021/09/12 03:55:20;;;;;;;6.07;2.70;;;;;;;22.45;48.91;101526.03;5003490;28;20534;-62
2021/09/12 03:57:45;;;;;;;4.90;2.10;;;;;;;22.52;49.76;101557.03;5005058;28;20114;-62
2021/09/12 04:00:11;;;;;;;7.38;2.65;;;;;;;22.47;49.57;101555.91;5006789;28;20053;-62
2021/09/12 04:02:37;;;;;;;8.10;2.78;;;;;;;22.41;49.78;101557.50;5005858;28;20073;-62
2021/09/12 04:05:03;;;;;;;3.65;2.40;;;;;;;22.32;49.24;101546.84;5003853;28;20030;-62
2021/09/12 04:07:28;;;;;;;2.72;2.17;;;;;;;22.33;48.82;101551.28;5004719;28;20044;-62
2021/09/12 04:09:53;;;;;;;6.00;2.40;;;;;;;22.30;49.38;101557.13;5005551;28;20031;-62
2021/09/12 04:12:19;;;;;;;5.40;2.70;;;;;;;22.29;49.36;101552.69;5018261;28;20397;-62
2021/09/12 04:14:44;;;;;;;7.95;3.60;;;;;;;22.28;49.94;101548.28;5004908;28;20022;-62
2021/09/12 04:17:10;;;;;;;6.10;3.63;;;;;;;22.28;49.26;101548.28;5004770;28;20030;-62
2021/09/12 04:19:35;;;;;;;8.60;3.20;;;;;;;22.29;49.42;101550.81;5005280;28;20057;-62
2021/09/12 04:22:00;;;;;;;5.25;2.97;;;;;;;22.28;49.25;101548.28;5004175;28;20026;-62
2021/09/12 04:24:26;;;;;;;6.53;3.08;;;;;;;22.31;49.31;101546.00;5003415;28;20026;-62
2021/09/12 04:26:52;;;;;;;8.65;3.47;;;;;;;22.32;50.26;101546.84;5005008;28;20026;-62
2021/09/12 04:29:17;;;;;;;5.13;3.15;;;;;;;22.34;49.07;101551.09;5003896;28;20021;-62
2021/09/12 04:31:43;;;;;;;4.68;2.75;;;;;;;22.34;50.20;101547.50;5020679;28;20453;-62
2021/09/12 04:34:08;;;;;;;7.30;3.05;;;;;;;22.32;49.91;101544.97;5005249;28;20030;-62
2021/09/12 04:36:33;;;;;;;7.47;4.43;;;;;;;22.35;49.92;101541.88;5001319;28;20165;-62
2021/09/12 04:38:59;;;;;;;10.65;3.67;;;;;;;22.41;49.74;101549.31;5003887;28;20585;-61
2021/09/12 04:41:24;;;;;;;7.20;3.38;;;;;;;22.45;50.41;101550.59;5005129;28;20026;-62
2021/09/12 04:43:50;;;;;;;14.88;3.63;;;;;;;22.51;50.24;101558.06;5005044;28;20406;-62
2021/09/12 04:46:15;;;;;;;7.60;3.38;;;;;;;22.57;50.49;101557.31;5004268;28;20023;-62
2021/09/12 04:48:41;;;;;;;10.95;3.83;;;;;;;22.65;49.99;101550.06;5003978;28;20102;-62
2021/09/12 04:51:06;;;;;;;5.63;3.45;;;;;;;22.71;49.86;101562.97;5002735;28;20054;-62
2021/09/12 04:53:32;;;;;;;6.38;3.85;;;;;;;22.77;49.79;101562.19;5005014;28;20041;-62
2021/09/12 04:55:57;;;;;;;5.07;3.50;;;;;;;22.79;49.85;101555.50;5003016;28;20438;-61
2021/09/12 04:58:23;;;;;;;10.13;3.40;;;;;;;22.90;50.53;101567.81;5003318;28;20036;-62
2021/09/12 05:00:48;;;;;;;9.95;4.78;;;;;;;22.90;49.87;101554.16;5004823;28;20026;-61
2021/09/12 05:03:13;;;;;;;7.65;3.20;;;;;;;23.00;49.57;101563.75;5004564;28;20101;-62
2021/09/12 05:05:39;;;;;;;8.32;3.45;;;;;;;23.03;49.46;101573.47;5002760;28;20635;-62
2021/09/12 05:08:04;;;;;;;6.43;3.45;;;;;;;23.07;50.45;101569.31;5004022;28;20026;-62
2021/09/12 05:10:31;;;;;;;8.05;3.20;;;;;;;23.08;50.50;101576.47;5003792;28;20030;-62
2021/09/12 05:12:56;;;;;;;7.95;3.28;;;;;;;23.11;50.07;101571.47;5003999;28;20030;-62
2021/09/12 05:15:22;;;;;;;10.75;3.35;;;;;;;23.15;50.68;101571.91;5003804;28;20107;-62
2021/09/12 05:17:47;;;;;;;7.25;3.08;;;;;;;23.20;50.51;101574.91;5003835;28;20062;-62
2021/09/12 05:20:12;;;;;;;10.55;3.38;;;;;;;23.24;49.68;101576.22;5003851;28;20026;-62
2021/09/12 05:22:38;;;;;;;6.47;2.50;;;;;;;23.25;49.57;101560.69;5003862;28;20517;-61
2021/09/12 05:25:04;;;;;;;7.60;2.75;;;;;;;23.30;49.71;101560.94;5004250;28;20021;-62
2021/09/12 05:27:29;;;;;;;8.25;3.35;;;;;;;23.33;50.23;101574.22;5004608;28;20068;-62
2021/09/12 05:29:55;;;;;;;5.43;3.35;;;;;;;23.36;49.34;101580.16;5004240;28;20021;-62
2021/09/12 05:32:20;;;;;;;8.88;3.80;;;;;;;23.37;49.37;101579.09;5002589;28;20051;-62
2021/09/12 05:34:46;;;;;;;6.13;2.95;;;;;;;23.40;49.29;101586.94;5002328;28;20023;-62
2021/09/12 05:37:12;;;;;;;6.95;2.75;;;;;;;23.40;49.49;101586.09;5003319;28;20026;-62
2021/09/12 05:39:37;;;;;;;5.68;3.58;;;;;;;23.43;49.27;101592.03;5004046;28;20036;-62
2021/09/12 05:42:03;;;;;;;4.15;2.28;;;;;;;23.42;48.98;101595.78;4998991;28;20030;-62
2021/09/12 05:44:29;;;;;;;6.82;2.63;;;;;;;23.45;50.07;101594.59;5003700;28;20450;-62
2021/09/12 05:46:54;;;;;;;7.75;3.22;;;;;;;23.46;48.94;101590.78;5005377;28;20101;-61
2021/09/12 05:49:20;;;;;;;9.48;2.90;;;;;;;23.47;49.22;101585.16;5003084;28;20061;-62
2021/09/12 05:51:46;;;;;;;7.68;2.60;;;;;;;23.47;48.89;101587.88;5003155;28;20030;-62
2021/09/12 05:54:12;;;;;;;6.20;2.17;;;;;;;23.48;48.73;101594.19;5002994;28;20018;-62
2021/09/12 05:56:37;;;;;;;6.80;2.95;;;;;;;23.48;49.00;101600.50;5002245;28;20036;-62
2021/09/12 05:59:03;;;;;;;9.57;3.00;;;;;;;23.49;48.67;101599.47;5003531;28;20030;-62
2021/09/12 06:01:29;;;;;;;6.70;2.83;;;;;;;23.47;49.23;101592.50;5003673;28;20062;-62
2021/09/12 06:03:55;;;;;;;10.55;3.55;;;;;;;23.55;49.56;101606.91;5003602;28;20431;-62
2021/09/12 06:06:20;;;;;;;4.38;2.60;;;;;;;23.62;48.43;101606.94;5002890;28;20361;-62
2021/09/12 06:08:45;;;;;;;4.38;2.67;;;;;;;23.70;48.95;101604.94;5003072;28;20360;-62
2021/09/12 06:11:11;;;;;;;5.45;3.17;;;;;;;23.83;48.59;101606.09;5003349;28;20045;-62
2021/09/12 06:13:37;;;;;;;5.60;2.63;;;;;;;23.81;49.27;101591.78;5002942;28;20037;-62
2021/09/12 06:16:04;;;;;;;10.80;3.13;;;;;;;23.91;48.46;101609.56;5001477;28;20026;-62
2021/09/12 06:18:29;;;;;;;5.38;3.42;;;;;;;23.92;48.35;101608.53;5002767;28;20049;-62
2021/09/12 06:20:55;;;;;;;4.55;2.53;;;;;;;23.95;48.17;101610.00;5002650;28;20054;-62
2021/09/12 06:23:20;;;;;;;6.85;2.88;;;;;;;23.97;48.75;101611.50;5003276;28;20022;-62
2021/09/12 06:25:45;;;;;;;5.07;2.53;;;;;;;23.99;48.52;101614.03;5002170;28;20023;-62
2021/09/12 06:28:11;;;;;;;10.05;3.28;;;;;;;24.03;48.72;101609.88;5002457;28;20022;-62
2021/09/12 06:30:36;;;;;;;9.73;2.42;;;;;;;24.09;47.98;101603.59;5002061;28;20076;-62
2021/09/12 06:33:02;;;;;;;6.95;2.35;;;;;;;24.14;48.70;101601.16;5003035;28;20040;-62
2021/09/12 06:35:27;;;;;;;6.68;2.70;;;;;;;24.20;47.73;101600.34;5003372;28;20030;-62
2021/09/12 06:37:52;;;;;;;5.60;2.55;;;;;;;24.28;47.70;101598.31;5002807;28;20019;-62
2021/09/12 06:40:18;;;;;;;6.05;2.85;;;;;;;24.34;47.49;101600.22;5002474;28;20022;-62
2021/09/12 06:42:43;;;;;;;7.57;2.95;;;;;;;24.41;48.01;101605.75;5002060;28;20113;-62
2021/09/12 06:45:09;;;;;;;6.78;2.50;;;;;;;24.56;47.92;101602.91;5001542;28;20117;-62
2021/09/12 06:47:34;;;;;;;6.45;2.80;;;;;;;24.59;47.54;101603.34;5003101;28;20049;-62
2021/09/12 06:50:00;;;;;;;4.15;2.78;;;;;;;24.63;47.36;101601.88;5002555;28;20046;-62
2021/09/12 06:52:25;;;;;;;6.60;3.45;;;;;;;24.64;47.64;101603.59;5001830;28;20541;-62
2021/09/12 06:54:50;;;;;;;9.07;3.17;;;;;;;24.67;47.83;101607.81;5002127;28;20033;-63
2021/09/12 06:57:16;;;;;;;7.53;3.20;;;;;;;24.64;47.41;101595.38;5002002;28;20542;-63
2021/09/12 06:59:41;;;;;;;11.18;2.90;;;;;;;24.83;47.42;101610.25;5001903;28;20025;-62
2021/09/12 07:02:07;;;;;;;8.00;2.78;;;;;;;24.98;46.70;101604.63;5017364;28;20049;-62
2021/09/12 07:04:32;;;;;;;9.60;2.92;;;;;;;25.03;47.19;101613.09;5001950;28;20034;-62
2021/09/12 07:06:58;;;;;;;8.93;3.10;;;;;;;25.15;46.53;101614.19;5002120;28;20022;-62
2021/09/12 07:09:23;;;;;;;8.20;2.70;;;;;;;25.28;46.73;101616.97;5001426;28;20033;-62
2021/09/12 07:11:49;;;;;;;7.22;3.47;;;;;;;25.45;46.15;101593.59;5002697;28;20057;-61
2021/09/12 07:14:14;;;;;;;7.15;4.03;;;;;;;25.67;45.93;101608.88;5002514;28;20030;-62
2021/09/12 07:16:39;;;;;;;5.00;2.50;;;;;;;25.87;45.75;101608.91;5002711;28;20387;-62
2021/09/12 07:19:07;;;;;;;6.25;2.45;;;;;;;26.13;45.18;101599.81;5001900;28;20033;-62
2021/09/12 07:21:33;;;;;;;8.02;3.65;;;;;;;26.32;45.36;101597.09;5002248;28;20034;-62
2021/09/12 07:23:59;;;;;;;4.72;2.67;;;;;;;26.62;45.15;101597.44;5001798;28;20037;-62
2021/09/12 07:26:24;;;;;;;5.20;2.80;;;;;;;26.86;44.87;101599.50;5002232;28;20026;-62
2021/09/12 07:28:50;;;;;;;4.53;2.28;;;;;;;27.02;44.15;101598.19;5002473;28;20492;-62
2021/09/12 07:31:15;;;;;;;5.30;2.55;;;;;;;27.18;44.01;101606.78;5002496;28;20033;-63
2021/09/12 07:33:40;;;;;;;5.97;1.85;;;;;;;27.35;44.03;101600.75;5001244;28;20054;-62
2021/09/12 07:36:06;;;;;;;6.18;2.55;;;;;;;27.59;43.45;101605.50;5001606;28;20431;-62
2021/09/12 07:38:31;;;;;;;5.28;2.60;;;;;;;27.74;42.72;101600.53;5003263;28;20124;-62
2021/09/12 07:40:57;;;;;;;3.92;2.25;;;;;;;27.85;42.52;101602.56;5002645;28;20477;-62
2021/09/12 07:43:22;;;;;;;5.78;1.70;;;;;;;28.01;42.17;101604.75;5002273;28;20026;-62
2021/09/12 07:45:48;;;;;;;4.95;1.80;;;;;;;28.19;42.56;101604.88;5000901;28;20049;-59
2021/09/12 07:48:13;;;;;;;3.22;1.50;;;;;;;28.28;42.34;101597.97;5001345;28;20105;-59
2021/09/12 07:50:39;;;;;;;4.18;2.20;;;;;;;28.44;42.48;101599.31;5003261;28;20381;-59
2021/09/12 07:53:04;;;;;;;5.57;2.83;;;;;;;28.56;42.24;101605.75;5001491;28;20034;-59
2021/09/12 07:55:29;;;;;;;4.00;1.73;;;;;;;28.61;41.65;101586.63;5001365;28;20022;-60
2021/09/12 07:57:55;;;;;;;7.85;1.83;;;;;;;28.77;40.99;101597.06;5002061;28;20026;-59
2021/09/12 08:00:20;;;;;;;6.20;1.73;;;;;;;28.96;40.96;101595.13;5001172;28;20420;-60
2021/09/12 08:02:46;;;;;;;7.22;1.95;;;;;;;29.17;41.42;101600.19;5001573;28;20171;-60
2021/09/12 08:05:11;;;;;;;4.20;1.60;;;;;;;29.34;40.29;101597.66;5004479;28;20201;-60
2021/09/12 08:07:37;;;;;;;15.30;3.50;;;;;;;29.50;40.56;101596.97;5002821;28;20390;-60
2021/09/12 08:10:03;;;;;;;4.40;2.00;;;;;;;29.50;40.60;101585.09;5005021;28;20041;-59
2021/09/12 08:12:29;;;;;;;7.65;1.83;;;;;;;29.68;40.75;101596.91;5006253;28;20037;-60
2021/09/12 08:14:54;;;;;;;3.15;1.55;;;;;;;29.90;39.69;101602.78;5005031;28;20105;-60
2021/09/12 08:17:20;;;;;;;2.72;1.45;;;;;;;30.14;39.42;101598.94;5004025;28;20026;-60
2021/09/12 08:19:45;;;;;;;3.67;1.48;;;;;;;30.30;39.44;101592.69;5003662;28;20389;-60
2021/09/12 08:22:10;;;;;;;6.38;1.63;;;;;;;30.51;39.36;101607.88;5005044;28;20030;-59
2021/09/12 08:24:36;;;;;;;2.85;1.25;;;;;;;30.57;38.79;101599.44;5004452;28;20045;-60
2021/09/12 08:27:01;;;;;;;5.45;1.20;;;;;;;30.63;38.77;101613.41;5005401;28;20034;-59
2021/09/12 08:29:26;;;;;;;3.47;1.27;;;;;;;30.64;38.82;101609.53;5006766;28;20028;-60
2021/09/12 08:31:52;;;;;;;1.83;1.50;;;;;;;30.69;38.83;101606.88;5003442;28;20034;-60
2021/09/12 08:34:17;;;;;;;5.03;1.20;;;;;;;30.80;38.44;101608.78;5003500;28;20065;-59
2021/09/12 08:36:44;;;;;;;5.70;1.33;;;;;;;30.75;38.32;101614.22;5006547;28;20026;-60
2021/09/12 08:39:09;;;;;;;5.57;1.55;;;;;;;30.80;38.18;101606.00;5001838;28;20037;-60
2021/09/12 08:41:35;;;;;;;7.20;2.08;;;;;;;30.96;37.46;101613.63;5004150;28;20026;-60
2021/09/12 08:44:00;;;;;;;4.05;1.10;;;;;;;31.08;37.66;101606.94;5003423;28;20040;-59
2021/09/12 08:46:26;;;;;;;3.45;1.15;;;;;;;31.10;37.52;101609.47;5004706;28;20504;-60
2021/09/12 08:48:51;;;;;;;1.38;0.77;;;;;;;31.22;37.08;101618.56;5005288;28;20026;-59
2021/09/12 08:51:19;;;;;;;5.32;1.85;;;;;;;31.35;36.99;101621.03;5004611;28;20177;-60
2021/09/12 08:53:44;;;;;;;4.63;0.85;;;;;;;31.49;36.79;101613.34;5004921;28;20438;-60
2021/09/12 08:56:10;;;;;;;2.88;1.30;;;;;;;31.61;36.72;101608.56;5002999;28;20018;-60
2021/09/12 08:58:35;;;;;;;9.05;0.95;;;;;;;31.68;36.91;101618.41;5002283;28;20109;-60
2021/09/12 09:01:01;;;;;;;3.83;0.73;;;;;;;31.74;36.58;101610.19;5003633;28;20091;-60
2021/09/12 09:03:34;;;;;;;4.65;1.50;;;;;;;31.97;35.72;101626.66;5004706;28;20432;-59
2021/09/12 09:06:10;;;;;;;2.95;0.90;;;;;;;32.32;34.98;101626.44;5004904;28;20387;-60
2021/09/12 09:08:51;;;;;;;5.00;0.98;;;;;;;32.22;35.51;101614.09;5004844;28;20018;-60
2021/09/12 09:11:27;;;;;;;2.90;0.70;;;;;;;32.45;35.63;101613.06;5019242;28;20092;-60
2021/09/12 09:13:52;;;;;;;3.92;0.57;;;;;;;32.24;36.15;101617.47;5004768;28;20065;-60
2021/09/12 09:16:27;;;;;;;2.92;0.88;;;;;;;32.16;35.46;101625.38;5018476;28;20026;-60
2021/09/12 09:19:06;;;;;;;2.05;0.95;;;;;;;32.29;34.78;101616.69;5001717;28;20034;-60
2021/09/12 09:21:58;;;;;;;3.88;0.60;;;;;;;32.25;34.88;101621.06;5003218;28;20065;-60
2021/09/12 09:24:25;;;;;;;3.83;1.17;;;;;;;32.52;34.51;101613.72;4998439;28;20405;-60
2021/09/12 09:26:57;;;;;;;3.75;1.08;;;;;;;32.63;34.60;101612.81;5004090;28;20016;-60
2021/09/12 09:29:24;;;;;;;;;;;;;;;32.38;34.95;101615.19;5002152;28;20022;-60
2021/09/12 09:32:20;;;;;;;1.42;0.90;;;;;;;32.62;33.98;101605.56;5002796;28;19914;-60
2021/09/12 09:34:46;;;;;;;4.90;0.95;;;;;;;32.33;34.61;101603.97;5002661;28;20062;-60
2021/09/12 09:37:19;;;;;;;1.83;0.85;;;;;;;32.43;34.18;101606.06;5004079;28;20156;-60
2021/09/12 09:39:49;;;;;;;7.38;1.77;;;;;;;32.36;33.79;101606.25;5001934;28;20031;-60
2021/09/12 09:42:34;;;;;;;2.38;0.85;;;;;;;31.99;34.41;101602.31;5004741;28;20544;-60
2021/09/12 09:45:13;;;;;;;4.18;1.20;;;;;;;32.79;33.66;101609.13;5005238;28;20407;-60
2021/09/12 09:47:41;;;;;;;3.17;1.45;;;;;;;32.97;33.87;101593.25;5003353;28;20076;-60
2021/09/12 09:50:12;;;;;;;1.63;0.80;;;;;;;32.14;33.80;101599.78;5002882;28;20026;-59
2021/09/12 09:52:39;;;;;;;2.27;0.97;;;;;;;31.73;34.27;101603.78;5002990;28;20116;-59
2021/09/12 09:55:06;;;;;;;2.65;0.73;;;;;;;31.43;34.49;101601.28;5004057;28;20018;-60
2021/09/12 09:57:33;;;;;;;1.40;0.70;;;;;;;31.11;34.97;101594.53;5003082;28;20105;-59
2021/09/12 09:59:59;;;;;;;2.22;0.85;;;;;;;30.96;34.97;101602.53;5004577;28;20029;-60
2021/09/12 10:02:25;;;;;;;2.85;0.75;;;;;;;30.74;34.91;101604.25;5003894;28;20036;-60
2021/09/12 10:04:51;;;;;;;2.92;0.65;;;;;;;31.18;34.21;101603.56;5002827;28;20018;-60
2021/09/12 10:07:19;;;;;;;3.47;1.08;;;;;;;31.63;33.84;101593.34;5002854;28;20080;-59
2021/09/12 10:09:45;;;;;;;3.33;0.80;;;;;;;31.93;34.07;101589.44;5019910;28;20018;-59
2021/09/12 10:12:12;;;;;;;2.00;0.73;;;;;;;32.32;33.05;101582.91;5004026;28;20036;-60
2021/09/12 10:14:57;;;;;;;5.55;0.95;;;;;;;32.71;33.47;101579.06;5018999;28;20033;-59
2021/09/12 10:17:26;;;;;;;2.88;1.40;;;;;;;33.61;33.03;101586.81;5004552;28;20021;-60
2021/09/12 10:20:10;;;;;;;1.80;1.00;;;;;;;33.77;32.95;101583.06;5002989;28;20433;-60
2021/09/12 10:23:00;;;;;;;8.32;4.18;;;;;;;34.72;31.65;101584.91;5003340;28;20048;-60
2021/09/12 10:25:48;;;;;;;8.20;1.98;;;;;;;35.43;30.50;101586.00;5001394;28;20045;-60
2021/09/12 10:28:27;;;;;;;2.50;1.00;;;;;;;35.62;30.69;101584.38;4993155;28;20438;-60
2021/09/12 10:30:53;;;;;;;2.15;1.25;;;;;;;36.00;29.97;101577.44;5001301;28;20554;-60
2021/09/12 10:33:21;;;;;;;6.13;1.40;;;;;;;36.60;29.24;101579.31;5003336;28;20108;-60
2021/09/12 10:35:54;;;;;;;3.60;1.33;;;;;;;36.62;29.62;101567.88;5004705;28;20097;-61
2021/09/12 10:38:33;;;;;;;1.38;1.23;;;;;;;36.55;28.91;101570.13;5003210;28;20043;-61
2021/09/12 10:41:01;;;;;;;3.13;1.10;;;;;;;36.57;28.99;101568.75;5003376;28;20065;-60
2021/09/12 10:43:30;;;;;;;3.72;0.90;;;;;;;37.10;28.93;101571.91;5003181;28;20026;-60
2021/09/12 10:46:01;;;;;;;4.25;1.00;;;;;;;37.47;28.08;101563.03;5001015;28;20164;-61
2021/09/12 10:48:30;;;;;;;1.88;0.70;;;;;;;37.73;28.02;101575.69;5003066;28;20378;-61
2021/09/12 10:50:58;;;;;;;3.13;0.85;;;;;;;37.99;28.07;101563.19;5000860;28;20034;-61
2021/09/12 10:53:45;;;;;;;3.83;1.02;;;;;;;38.22;27.26;101567.97;5000711;28;20410;-60
2021/09/12 10:56:17;;;;;;;2.65;1.08;;;;;;;38.12;27.16;101564.44;4998996;28;20018;-60
2021/09/12 10:58:43;;;;;;;1.95;1.05;;;;;;;37.99;27.68;101568.78;5002955;28;20046;-60
2021/09/12 11:01:13;;;;;;;3.95;1.10;;;;;;;38.36;27.78;101566.19;5015589;28;20383;-60
2021/09/12 11:03:44;;;;;;;5.03;1.25;;;;;;;38.58;27.33;101564.84;5002521;28;20046;-60
2021/09/12 11:06:16;;;;;;;1.77;0.85;;;;;;;37.72;28.07;101568.41;5001515;28;20177;-60
2021/09/12 11:08:42;;;;;;;;;;;;;;;38.42;28.44;101562.19;5003461;28;20029;-60
2021/09/12 11:11:08;;;;;;;5.22;0.88;;;;;;;38.44;27.62;101556.31;5003951;28;19914;-60
2021/09/12 11:13:35;;;;;;;1.48;0.88;;;;;;;38.01;27.57;101560.91;5003497;28;20048;-60
2021/09/12 11:16:18;;;;;;;2.83;0.80;;;;;;;38.47;27.60;101556.53;5004265;28;20124;-61
2021/09/12 11:18:58;;;;;;;2.92;1.17;;;;;;;38.92;27.32;101552.34;5006007;28;20467;-60
2021/09/12 11:21:37;;;;;;;4.20;1.30;;;;;;;39.05;26.38;101547.16;4998201;28;20034;-61
2021/09/12 11:24:14;;;;;;;3.53;1.00;;;;;;;38.18;26.94;101549.28;5002204;28;20026;-60